Les articles d'ExpertMaritime.pro


Votre expert maritime indépendant Xavier Braive est disponible sur la zone de Saujon - Port de Ribérou - 17600

(Charente-Maritime - Poitou-Charentes)


Voir plan
Situation :

Le port de Ribérou est un port de pêche et de plaisance situé au fond de l'estuaire de la Seudre, à Saujon. C'est l'un des deux ports de la ville avec celui du Breuil, un peu en aval.

Actif dès le XIe siècle, il prend son aspect actuel à partir de 1842, sous l'impulsion du ministre des travaux publics de l'époque, Jules Dufaure, " enfant du pays", qui tente ainsi de relancer le commerce maritime et les activités halieutiques, alors en déclin.
Idéalement situé, en marge du centre-ville, de la base de loisirs de La Lande et des espaces préservés des marais de la Seudre (chemins de halage transformés en sentiers de promenade), il est devenu un des hauts lieux du tourisme saujonnais, où sont notamment organisés des soirées thématiques et le feu d'artifice du 14 juillet.

En 2011, le port de Ribérou a été l'objet d'un important programme de rénovation urbaine conduit par l'architecte-urbaniste Sophie Blanchet, complétant des efforts déjà mis en œuvre en centre-ville.
Une partie du site est reconvertie en esplanade piétonne, dotée d'un mobilier urbain contemporain : il se veut une sorte de "trait d'union" entre la base de loisirs de La Lande (piscine, tennis, boulodrome, stade, terrain de basket...), les sentiers de promenade et de découverte des marais de la Seudre, qui débutent au port, et le centre-ville.
L'inauguration du nouveau port a lieu le 18 août 2012, en présence du maire, Pascal Ferchaud, et d'une foule nombreuse venue profiter des animations : concerts, jeux nautiques, joutes, etc.

Aujourd'hui, le port de Ribérou est un petit port de pêche et de plaisance. C'est également une base de départ pour certains sports nautiques (canoë-kayak). Sa longueur est d'environ 250 mètres pour 40 mètres.
Depuis Ribérou, il est possible d'atteindre successivement les ports du Breuil (Saujon), de L'Éguille, de Mornac, de Chaillevette, de Chatressac (Chaillevette), des Grandes Roches et d'Orivol (Étaules), de La Grève à Duret et de Coux (Arvert), de La Grève (La Tremblade) et de La Cayenne (Marennes).


En 2011, la municipalité entame un programme de rénovation du site portuaire, confié à l'architecte-urbaniste Sophie Blanchet. Il consiste en une transformation des anciens parkings en esplanade piétonne, véritable espace de rencontre doté d'un mobilier urbain moderne et à terme, d'espaces verts. Depuis les quais, bordés d'immeubles bourgeois, de petites rues pittoresques et fleuries de roses trémières permettent de sillonner le quartier et de rejoindre le centre-ville.

Le pont à écluse de Ribérou, dit « pont des eaux contraires », a été rénové en 2010. Il marque la séparation entre les eaux de l'estuaire (côté port : eaux saumâtres) et les eaux du fleuve (côté bassin de retenue : eaux douces).



Adresse :

Mairie
1, place Denfert Rochereau
17600 SAUJON

Tél/Fax : 05 46 02 80 07 / 05 46 02 91 92

E-mail : contact@mairie-saujon.fr
Météo locale sur la zone Port de Ribérou
Heure (UTC) Dir.Vent Vit.Vent (nds) Force (Bft) T°min T°max P (mb) Hum.Rel.
19/03/2019 - 18:00:00 au 19/03/2019 - 21:00:00 336° (NNW) 12 4 8°C 10°C 1032 90 %
19/03/2019 - 21:00:00 au 20/03/2019 - 00:00:00 356° () 11 4 8°C 10°C 1033 91 %
20/03/2019 - 00:00:00 au 20/03/2019 - 03:00:00 011° (N) 7 3 7°C 8°C 1032 97 %
20/03/2019 - 03:00:00 au 20/03/2019 - 06:00:00 028° (NNE) 7 3 7°C 8°C 1033 92 %
20/03/2019 - 06:00:00 au 20/03/2019 - 09:00:00 069° (ENE) 6 2 10°C 10°C 1034 84 %
20/03/2019 - 09:00:00 au 20/03/2019 - 12:00:00 026° (NNE) 3 1 13°C 13°C 1034 79 %
20/03/2019 - 12:00:00 au 20/03/2019 - 15:00:00 334° (NNW) 7 3 13°C 13°C 1033 73 %
20/03/2019 - 15:00:00 au 20/03/2019 - 18:00:00 337° (NNW) 9 3 12°C 12°C 1033 71 %
20/03/2019 - 18:00:00 au 20/03/2019 - 21:00:00 358° () 8 3 11°C 11°C 1034 78 %
20/03/2019 - 21:00:00 au 21/03/2019 - 00:00:00 047° (NE) 5 2 9°C 9°C 1033 84 %
21/03/2019 - 00:00:00 au 21/03/2019 - 03:00:00 051° (NE) 8 3 9°C 9°C 1033 89 %
21/03/2019 - 03:00:00 au 21/03/2019 - 06:00:00 048° (NE) 7 3 7°C 7°C 1033 99 %
21/03/2019 - 06:00:00 au 21/03/2019 - 09:00:00 048° (NE) 8 3 10°C 10°C 1034 79 %
21/03/2019 - 09:00:00 au 21/03/2019 - 12:00:00 032° (NNE) 8 3 13°C 13°C 1033 71 %
21/03/2019 - 12:00:00 au 21/03/2019 - 15:00:00 017° (NNE) 9 3 15°C 15°C 1030 64 %
21/03/2019 - 15:00:00 au 21/03/2019 - 18:00:00 022° (NNE) 8 3 14°C 14°C 1029 60 %
21/03/2019 - 18:00:00 au 21/03/2019 - 21:00:00 049° (NE) 8 3 12°C 12°C 1029 67 %
21/03/2019 - 21:00:00 au 22/03/2019 - 00:00:00 052° (NE) 9 3 9°C 9°C 1028 82 %
22/03/2019 - 00:00:00 au 22/03/2019 - 03:00:00 063° (ENE) 5 2 8°C 8°C 1027 87 %
22/03/2019 - 03:00:00 au 22/03/2019 - 06:00:00 085° (E) 4 2 7°C 7°C 1027 89 %
22/03/2019 - 06:00:00 au 22/03/2019 - 09:00:00 124° (ESE) 5 2 11°C 11°C 1027 75 %
22/03/2019 - 09:00:00 au 22/03/2019 - 12:00:00 210° (SSW) 4 2 13°C 13°C 1027 72 %
22/03/2019 - 12:00:00 au 22/03/2019 - 15:00:00 241° (WSW) 5 2 14°C 14°C 1027 68 %
22/03/2019 - 15:00:00 au 22/03/2019 - 18:00:00 275° (W) 4 2 12°C 12°C 1027 70 %
22/03/2019 - 18:00:00 au 22/03/2019 - 21:00:00 321° (NW) 4 2 9°C 9°C 1028 90 %
22/03/2019 - 21:00:00 au 23/03/2019 - 00:00:00 321° (NW) 5 2 8°C 8°C 1028 88 %
23/03/2019 - 00:00:00 au 23/03/2019 - 03:00:00 320° (NW) 3 1 8°C 8°C 1027 89 %
23/03/2019 - 03:00:00 au 23/03/2019 - 06:00:00 323° (NW) 3 1 7°C 7°C 1027 89 %
23/03/2019 - 06:00:00 au 23/03/2019 - 09:00:00 080° (E) 2 1 10°C 10°C 1028 93 %
23/03/2019 - 09:00:00 au 23/03/2019 - 12:00:00 243° (WSW) 4 2 13°C 13°C 1027 77 %
23/03/2019 - 12:00:00 au 23/03/2019 - 15:00:00 288° (WNW) 7 3 13°C 13°C 1026 72 %
23/03/2019 - 15:00:00 au 23/03/2019 - 18:00:00 307° (NW) 6 2 12°C 12°C 1025 72 %
23/03/2019 - 18:00:00 au 23/03/2019 - 21:00:00 285° (WNW) 3 1 10°C 10°C 1026 90 %
23/03/2019 - 21:00:00 au 24/03/2019 - 00:00:00 259° (WSW) 3 1 9°C 9°C 1026 86 %
24/03/2019 - 00:00:00 au 24/03/2019 - 03:00:00 026° (NNE) 6 2 9°C 9°C 1026 86 %
24/03/2019 - 03:00:00 au 24/03/2019 - 06:00:00 054° (NE) 11 4 8°C 8°C 1027 99 %
24/03/2019 - 06:00:00 au 24/03/2019 - 09:00:00 045° (NE) 10 3 11°C 11°C 1028 86 %
24/03/2019 - 09:00:00 au 24/03/2019 - 12:00:00 035° (NE) 8 3 15°C 15°C 1028 71 %
24/03/2019 - 12:00:00 au 24/03/2019 - 15:00:00 012° (NNE) 8 3 16°C 16°C 1026 65 %
24/03/2019 - 15:00:00 au 24/03/2019 - 18:00:00 002° (N) 9 3 15°C 15°C 1025 63 %
openweathermap
Ces informations sont partiellement extraites de Wikipedia, et des sites pertinents pour cette zone. Compilation d'informations de Xavier Braive.
Xavier Braive, Expert Maritime Plaisance se déplace sur Port de Ribérou, Saujon, 17600, Charente-Maritime

Welcome to Cross-Channel yachtmen !

we can deliver survey reports in english, in case of dammage or prior to buy / sell a boat in France (pre-purchase survey), and more specifically on the Normandy and Atlantic coasts.

Zone Méditerrannée

En partenariat avec le cabinet d'expertise IEM, nous proposons une couverture de la Côte d'Azur.
N'hésitez pas à contacter IEM en cliquant sur www.expert-maritime-cote-dazur.com

Uw onafhankelijk jachtexpert

verkrijkbaar op de Normandie kust, bij aankoop of reparatie van jachten (metaal, polyester of composiet). Rapporten in Nederlands

BRAIVE, Xavier
Xavier Braive
Expert Maritime
Nouvelle Aquitaine
France
06 71 50 20 17